sensor_id;sensor_type;location;lat;lon;timestamp;temperature;humidity
38398;DHT22;24179;52.094;4.408;2023-03-14T00:01:58;11.10;99.90
38398;DHT22;24179;52.094;4.408;2023-03-14T00:04:58;11.10;99.90
38398;DHT22;24179;52.094;4.408;2023-03-14T00:07:59;11.10;99.90
38398;DHT22;24179;52.094;4.408;2023-03-14T00:11:09;11.10;99.90
38398;DHT22;24179;52.094;4.408;2023-03-14T00:14:10;11.00;99.90
38398;DHT22;24179;52.094;4.408;2023-03-14T00:17:11;11.00;99.90
38398;DHT22;24179;52.094;4.408;2023-03-14T00:20:13;10.90;99.90
38398;DHT22;24179;52.094;4.408;2023-03-14T00:23:14;10.90;99.90
38398;DHT22;24179;52.094;4.408;2023-03-14T00:26:15;10.80;99.90
38398;DHT22;24179;52.094;4.408;2023-03-14T00:29:16;10.70;99.90
38398;DHT22;24179;52.094;4.408;2023-03-14T00:32:17;10.60;99.90
38398;DHT22;24179;52.094;4.408;2023-03-14T00:35:17;10.60;99.90
38398;DHT22;24179;52.094;4.408;2023-03-14T00:38:18;10.60;99.90
38398;DHT22;24179;52.094;4.408;2023-03-14T00:41:22;10.50;99.90
38398;DHT22;24179;52.094;4.408;2023-03-14T00:44:25;10.40;99.90
38398;DHT22;24179;52.094;4.408;2023-03-14T00:47:25;10.40;99.90
38398;DHT22;24179;52.094;4.408;2023-03-14T00:50:26;10.40;99.90
38398;DHT22;24179;52.094;4.408;2023-03-14T00:53:26;10.40;99.90
38398;DHT22;24179;52.094;4.408;2023-03-14T00:56:27;10.30;99.90
38398;DHT22;24179;52.094;4.408;2023-03-14T00:59:27;10.40;99.90
38398;DHT22;24179;52.094;4.408;2023-03-14T01:02:28;10.20;99.90
38398;DHT22;24179;52.094;4.408;2023-03-14T01:05:28;10.20;99.90
38398;DHT22;24179;52.094;4.408;2023-03-14T01:08:29;10.20;99.90
38398;DHT22;24179;52.094;4.408;2023-03-14T01:11:30;10.20;99.90
38398;DHT22;24179;52.094;4.408;2023-03-14T01:14:31;10.20;99.90
38398;DHT22;24179;52.094;4.408;2023-03-14T01:17:31;10.20;99.90
38398;DHT22;24179;52.094;4.408;2023-03-14T01:20:32;10.20;99.90
38398;DHT22;24179;52.094;4.408;2023-03-14T01:23:32;10.20;99.90
38398;DHT22;24179;52.094;4.408;2023-03-14T01:26:33;10.20;99.90
38398;DHT22;24179;52.094;4.408;2023-03-14T01:29:34;10.30;99.90
38398;DHT22;24179;52.094;4.408;2023-03-14T01:32:35;10.30;99.90
38398;DHT22;24179;52.094;4.408;2023-03-14T01:35:35;10.40;99.90
38398;DHT22;24179;52.094;4.408;2023-03-14T01:38:36;10.40;99.90
38398;DHT22;24179;52.094;4.408;2023-03-14T01:41:37;10.50;99.90
38398;DHT22;24179;52.094;4.408;2023-03-14T01:47:47;10.60;99.90
38398;DHT22;24179;52.094;4.408;2023-03-14T01:50:47;10.70;99.90
38398;DHT22;24179;52.094;4.408;2023-03-14T01:53:48;10.70;99.90
38398;DHT22;24179;52.094;4.408;2023-03-14T01:56:51;10.70;99.90
38398;DHT22;24179;52.094;4.408;2023-03-14T02:02:57;10.70;99.90
38398;DHT22;24179;52.094;4.408;2023-03-14T02:05:59;10.70;99.90
38398;DHT22;24179;52.094;4.408;2023-03-14T02:09:03;10.60;99.90
38398;DHT22;24179;52.094;4.408;2023-03-14T02:12:04;10.60;99.90
38398;DHT22;24179;52.094;4.408;2023-03-14T02:15:07;10.50;99.90
38398;DHT22;24179;52.094;4.408;2023-03-14T02:18:07;10.50;99.90
38398;DHT22;24179;52.094;4.408;2023-03-14T02:21:20;10.50;99.90
38398;DHT22;24179;52.094;4.408;2023-03-14T02:24:27;10.50;99.90
38398;DHT22;24179;52.094;4.408;2023-03-14T02:27:30;10.40;99.90
38398;DHT22;24179;52.094;4.408;2023-03-14T02:30:32;10.40;99.90
38398;DHT22;24179;52.094;4.408;2023-03-14T02:33:33;10.40;99.90
38398;DHT22;24179;52.094;4.408;2023-03-14T02:36:33;10.40;99.90
38398;DHT22;24179;52.094;4.408;2023-03-14T02:39:38;10.40;99.90
38398;DHT22;24179;52.094;4.408;2023-03-14T02:42:39;10.40;99.90
38398;DHT22;24179;52.094;4.408;2023-03-14T02:45:46;10.50;99.90
38398;DHT22;24179;52.094;4.408;2023-03-14T02:51:47;10.40;99.90
38398;DHT22;24179;52.094;4.408;2023-03-14T02:54:48;10.30;99.90
38398;DHT22;24179;52.094;4.408;2023-03-14T02:57:48;10.30;99.90
38398;DHT22;24179;52.094;4.408;2023-03-14T03:00:49;10.30;99.90
38398;DHT22;24179;52.094;4.408;2023-03-14T03:03:49;10.20;99.90
38398;DHT22;24179;52.094;4.408;2023-03-14T03:06:50;10.20;99.90
38398;DHT22;24179;52.094;4.408;2023-03-14T03:09:50;10.20;99.90
38398;DHT22;24179;52.094;4.408;2023-03-14T03:12:51;10.30;99.90
38398;DHT22;24179;52.094;4.408;2023-03-14T03:15:51;10.30;99.90
38398;DHT22;24179;52.094;4.408;2023-03-14T03:18:52;10.30;99.90
38398;DHT22;24179;52.094;4.408;2023-03-14T03:21:52;10.30;99.90
38398;DHT22;24179;52.094;4.408;2023-03-14T03:24:53;10.40;99.90
38398;DHT22;24179;52.094;4.408;2023-03-14T03:27:53;10.40;99.90
38398;DHT22;24179;52.094;4.408;2023-03-14T03:30:54;10.40;99.90
38398;DHT22;24179;52.094;4.408;2023-03-14T03:33:54;10.40;99.90
38398;DHT22;24179;52.094;4.408;2023-03-14T03:36:58;10.40;99.90
38398;DHT22;24179;52.094;4.408;2023-03-14T03:39:58;10.40;99.90
38398;DHT22;24179;52.094;4.408;2023-03-14T03:42:59;10.40;99.90
38398;DHT22;24179;52.094;4.408;2023-03-14T03:46:04;10.50;99.90
38398;DHT22;24179;52.094;4.408;2023-03-14T03:49:05;10.40;99.90
38398;DHT22;24179;52.094;4.408;2023-03-14T03:52:05;10.50;99.90
38398;DHT22;24179;52.094;4.408;2023-03-14T03:55:06;10.30;99.90
38398;DHT22;24179;52.094;4.408;2023-03-14T03:58:06;10.40;99.90
38398;DHT22;24179;52.094;4.408;2023-03-14T04:01:07;10.30;99.90
38398;DHT22;24179;52.094;4.408;2023-03-14T04:04:07;10.30;99.90
38398;DHT22;24179;52.094;4.408;2023-03-14T04:07:08;10.00;99.90
38398;DHT22;24179;52.094;4.408;2023-03-14T04:10:09;9.70;99.90
38398;DHT22;24179;52.094;4.408;2023-03-14T04:13:10;9.50;99.90
38398;DHT22;24179;52.094;4.408;2023-03-14T04:16:12;9.40;99.90
38398;DHT22;24179;52.094;4.408;2023-03-14T04:19:14;9.30;99.90
38398;DHT22;24179;52.094;4.408;2023-03-14T04:22:15;9.20;99.90
38398;DHT22;24179;52.094;4.408;2023-03-14T04:25:15;9.10;99.90
38398;DHT22;24179;52.094;4.408;2023-03-14T04:28:17;9.10;99.90
38398;DHT22;24179;52.094;4.408;2023-03-14T04:31:18;9.10;99.90
38398;DHT22;24179;52.094;4.408;2023-03-14T04:34:19;9.00;99.90
38398;DHT22;24179;52.094;4.408;2023-03-14T04:37:20;9.00;99.90
38398;DHT22;24179;52.094;4.408;2023-03-14T04:40:20;8.90;99.90
38398;DHT22;24179;52.094;4.408;2023-03-14T04:43:21;8.90;99.90
38398;DHT22;24179;52.094;4.408;2023-03-14T04:46:21;8.90;99.90
38398;DHT22;24179;52.094;4.408;2023-03-14T04:49:22;8.90;99.90
38398;DHT22;24179;52.094;4.408;2023-03-14T04:52:22;8.90;99.90
38398;DHT22;24179;52.094;4.408;2023-03-14T04:55:23;8.90;99.90
38398;DHT22;24179;52.094;4.408;2023-03-14T04:58:23;8.90;99.90
38398;DHT22;24179;52.094;4.408;2023-03-14T05:01:24;8.90;99.90
38398;DHT22;24179;52.094;4.408;2023-03-14T05:04:24;8.90;99.90
38398;DHT22;24179;52.094;4.408;2023-03-14T05:07:25;8.90;99.90
38398;DHT22;24179;52.094;4.408;2023-03-14T05:10:25;8.90;99.90
38398;DHT22;24179;52.094;4.408;2023-03-14T05:13:26;8.90;99.90
38398;DHT22;24179;52.094;4.408;2023-03-14T05:16:26;9.00;99.90
38398;DHT22;24179;52.094;4.408;2023-03-14T05:19:27;8.90;99.90
38398;DHT22;24179;52.094;4.408;2023-03-14T05:22:27;8.60;99.90
38398;DHT22;24179;52.094;4.408;2023-03-14T05:25:28;8.30;99.90
38398;DHT22;24179;52.094;4.408;2023-03-14T05:28:28;8.20;99.90
38398;DHT22;24179;52.094;4.408;2023-03-14T05:31:28;8.00;99.90
38398;DHT22;24179;52.094;4.408;2023-03-14T05:34:29;7.80;99.90
38398;DHT22;24179;52.094;4.408;2023-03-14T05:37:29;7.70;99.90
38398;DHT22;24179;52.094;4.408;2023-03-14T05:40:30;7.60;99.90
38398;DHT22;24179;52.094;4.408;2023-03-14T05:43:30;7.60;99.90
38398;DHT22;24179;52.094;4.408;2023-03-14T05:46:31;7.50;99.90
38398;DHT22;24179;52.094;4.408;2023-03-14T05:49:31;7.50;99.90
38398;DHT22;24179;52.094;4.408;2023-03-14T05:52:32;7.50;99.90
38398;DHT22;24179;52.094;4.408;2023-03-14T05:55:32;7.40;99.90
38398;DHT22;24179;52.094;4.408;2023-03-14T05:58:33;7.40;99.90
38398;DHT22;24179;52.094;4.408;2023-03-14T06:01:33;7.40;99.90
38398;DHT22;24179;52.094;4.408;2023-03-14T06:04:34;7.30;99.90
38398;DHT22;24179;52.094;4.408;2023-03-14T06:07:34;7.40;99.90
38398;DHT22;24179;52.094;4.408;2023-03-14T06:10:35;7.40;99.90
38398;DHT22;24179;52.094;4.408;2023-03-14T06:13:35;7.40;99.90
38398;DHT22;24179;52.094;4.408;2023-03-14T06:16:36;7.40;99.90
38398;DHT22;24179;52.094;4.408;2023-03-14T06:19:36;7.40;99.90
38398;DHT22;24179;52.094;4.408;2023-03-14T06:22:37;7.30;99.90
38398;DHT22;24179;52.094;4.408;2023-03-14T06:25:38;7.20;99.90
38398;DHT22;24179;52.094;4.408;2023-03-14T06:28:39;7.10;99.90
38398;DHT22;24179;52.094;4.408;2023-03-14T06:31:39;7.10;99.90
38398;DHT22;24179;52.094;4.408;2023-03-14T06:34:40;7.10;99.90
38398;DHT22;24179;52.094;4.408;2023-03-14T06:37:41;7.10;99.90
38398;DHT22;24179;52.094;4.408;2023-03-14T06:40:41;7.10;99.90
38398;DHT22;24179;52.094;4.408;2023-03-14T06:43:42;7.20;99.90
38398;DHT22;24179;52.094;4.408;2023-03-14T06:46:42;7.10;99.90
38398;DHT22;24179;52.094;4.408;2023-03-14T06:49:43;7.10;99.90
38398;DHT22;24179;52.094;4.408;2023-03-14T06:52:43;7.10;99.90
38398;DHT22;24179;52.094;4.408;2023-03-14T06:55:47;7.10;99.90
38398;DHT22;24179;52.094;4.408;2023-03-14T06:58:48;7.10;99.90
38398;DHT22;24179;52.094;4.408;2023-03-14T07:01:48;7.10;99.90
38398;DHT22;24179;52.094;4.408;2023-03-14T07:04:50;7.10;99.90
38398;DHT22;24179;52.094;4.408;2023-03-14T07:07:51;7.10;99.90
38398;DHT22;24179;52.094;4.408;2023-03-14T07:10:51;7.10;99.90
38398;DHT22;24179;52.094;4.408;2023-03-14T07:13:52;7.00;99.90
38398;DHT22;24179;52.094;4.408;2023-03-14T07:16:52;7.00;99.90
38398;DHT22;24179;52.094;4.408;2023-03-14T07:19:53;7.00;99.90
38398;DHT22;24179;52.094;4.408;2023-03-14T07:22:53;7.10;99.90
38398;DHT22;24179;52.094;4.408;2023-03-14T07:25:54;7.10;99.90
38398;DHT22;24179;52.094;4.408;2023-03-14T07:28:55;7.10;99.90
38398;DHT22;24179;52.094;4.408;2023-03-14T07:31:55;7.00;99.90
38398;DHT22;24179;52.094;4.408;2023-03-14T07:34:56;6.70;99.90
38398;DHT22;24179;52.094;4.408;2023-03-14T07:37:56;6.70;99.90
38398;DHT22;24179;52.094;4.408;2023-03-14T07:41:03;6.60;99.90
38398;DHT22;24179;52.094;4.408;2023-03-14T07:44:04;6.50;99.90
38398;DHT22;24179;52.094;4.408;2023-03-14T07:47:05;6.40;99.90
38398;DHT22;24179;52.094;4.408;2023-03-14T07:50:06;6.50;99.90
38398;DHT22;24179;52.094;4.408;2023-03-14T07:53:06;6.40;99.90
38398;DHT22;24179;52.094;4.408;2023-03-14T07:56:07;6.30;99.90
38398;DHT22;24179;52.094;4.408;2023-03-14T07:59:08;6.20;99.90
38398;DHT22;24179;52.094;4.408;2023-03-14T08:02:10;6.20;99.90
38398;DHT22;24179;52.094;4.408;2023-03-14T08:05:12;6.10;99.90
38398;DHT22;24179;52.094;4.408;2023-03-14T08:08:12;6.10;99.90
38398;DHT22;24179;52.094;4.408;2023-03-14T08:11:12;6.40;99.90
38398;DHT22;24179;52.094;4.408;2023-03-14T08:14:13;6.50;99.90
38398;DHT22;24179;52.094;4.408;2023-03-14T08:17:13;6.40;99.90
38398;DHT22;24179;52.094;4.408;2023-03-14T08:20:15;6.20;99.90
38398;DHT22;24179;52.094;4.408;2023-03-14T08:23:16;6.10;99.90
38398;DHT22;24179;52.094;4.408;2023-03-14T08:26:16;6.00;99.90
38398;DHT22;24179;52.094;4.408;2023-03-14T08:29:17;5.90;99.90
38398;DHT22;24179;52.094;4.408;2023-03-14T08:32:17;5.70;99.90
38398;DHT22;24179;52.094;4.408;2023-03-14T08:35:18;5.60;99.90
38398;DHT22;24179;52.094;4.408;2023-03-14T08:38:18;5.70;99.90
38398;DHT22;24179;52.094;4.408;2023-03-14T08:41:19;6.00;99.90
38398;DHT22;24179;52.094;4.408;2023-03-14T08:44:20;6.60;99.90
38398;DHT22;24179;52.094;4.408;2023-03-14T08:47:20;7.00;99.90
38398;DHT22;24179;52.094;4.408;2023-03-14T08:50:21;6.80;99.90
38398;DHT22;24179;52.094;4.408;2023-03-14T08:53:23;6.70;99.90
38398;DHT22;24179;52.094;4.408;2023-03-14T08:56:23;6.80;99.90
38398;DHT22;24179;52.094;4.408;2023-03-14T08:59:24;7.00;99.90
38398;DHT22;24179;52.094;4.408;2023-03-14T09:02:25;7.10;99.90
38398;DHT22;24179;52.094;4.408;2023-03-14T09:05:25;7.10;99.90
38398;DHT22;24179;52.094;4.408;2023-03-14T09:08:26;7.20;99.90
38398;DHT22;24179;52.094;4.408;2023-03-14T09:11:26;7.30;99.90
38398;DHT22;24179;52.094;4.408;2023-03-14T09:14:27;7.30;99.90
38398;DHT22;24179;52.094;4.408;2023-03-14T09:17:27;7.40;99.90
38398;DHT22;24179;52.094;4.408;2023-03-14T09:20:28;7.30;99.90
38398;DHT22;24179;52.094;4.408;2023-03-14T09:23:28;7.20;99.90
38398;DHT22;24179;52.094;4.408;2023-03-14T09:26:29;6.60;99.90
38398;DHT22;24179;52.094;4.408;2023-03-14T09:29:29;6.10;99.90
38398;DHT22;24179;52.094;4.408;2023-03-14T09:32:30;6.10;99.90
38398;DHT22;24179;52.094;4.408;2023-03-14T09:35:33;6.10;99.90
38398;DHT22;24179;52.094;4.408;2023-03-14T09:38:34;6.20;99.90
38398;DHT22;24179;52.094;4.408;2023-03-14T09:41:35;6.40;99.90
38398;DHT22;24179;52.094;4.408;2023-03-14T09:44:39;7.00;99.90
38398;DHT22;24179;52.094;4.408;2023-03-14T09:47:42;7.80;99.90
38398;DHT22;24179;52.094;4.408;2023-03-14T09:50:45;8.30;99.90
38398;DHT22;24179;52.094;4.408;2023-03-14T09:53:47;8.60;99.90
38398;DHT22;24179;52.094;4.408;2023-03-14T09:56:48;8.40;99.90
38398;DHT22;24179;52.094;4.408;2023-03-14T09:59:48;8.10;99.90
38398;DHT22;24179;52.094;4.408;2023-03-14T10:02:51;7.90;99.90
38398;DHT22;24179;52.094;4.408;2023-03-14T10:05:53;7.90;99.90
38398;DHT22;24179;52.094;4.408;2023-03-14T10:08:55;7.90;99.90
38398;DHT22;24179;52.094;4.408;2023-03-14T10:11:57;7.90;99.90
38398;DHT22;24179;52.094;4.408;2023-03-14T10:15:10;7.70;99.90
38398;DHT22;24179;52.094;4.408;2023-03-14T10:18:11;7.70;99.90
38398;DHT22;24179;52.094;4.408;2023-03-14T10:21:21;7.90;99.90
38398;DHT22;24179;52.094;4.408;2023-03-14T10:27:33;8.30;99.90
38398;DHT22;24179;52.094;4.408;2023-03-14T10:30:43;8.40;99.90
38398;DHT22;24179;52.094;4.408;2023-03-14T10:33:57;8.30;99.90
38398;DHT22;24179;52.094;4.408;2023-03-14T10:36:58;8.30;99.90
38398;DHT22;24179;52.094;4.408;2023-03-14T10:40:00;8.30;99.90
38398;DHT22;24179;52.094;4.408;2023-03-14T10:43:06;8.20;99.90
38398;DHT22;24179;52.094;4.408;2023-03-14T10:46:14;8.40;99.90
38398;DHT22;24179;52.094;4.408;2023-03-14T10:49:23;8.50;99.90
38398;DHT22;24179;52.094;4.408;2023-03-14T10:52:27;8.90;99.90
38398;DHT22;24179;52.094;4.408;2023-03-14T10:55:28;9.10;99.90
38398;DHT22;24179;52.094;4.408;2023-03-14T10:58:41;9.30;99.90
38398;DHT22;24179;52.094;4.408;2023-03-14T11:01:44;9.10;99.90
38398;DHT22;24179;52.094;4.408;2023-03-14T11:08:02;10.30;99.90
38398;DHT22;24179;52.094;4.408;2023-03-14T11:11:11;11.20;99.90
38398;DHT22;24179;52.094;4.408;2023-03-14T11:17:23;11.80;99.90
38398;DHT22;24179;52.094;4.408;2023-03-14T11:20:35;12.00;99.90
38398;DHT22;24179;52.094;4.408;2023-03-14T11:30:15;12.60;99.90
38398;DHT22;24179;52.094;4.408;2023-03-14T11:36:21;13.60;99.90
38398;DHT22;24179;52.094;4.408;2023-03-14T11:39:21;13.50;99.90
38398;DHT22;24179;52.094;4.408;2023-03-14T11:42:23;13.20;99.90
38398;DHT22;24179;52.094;4.408;2023-03-14T11:45:32;13.60;99.90
38398;DHT22;24179;52.094;4.408;2023-03-14T11:48:35;13.80;99.90
38398;DHT22;24179;52.094;4.408;2023-03-14T11:51:41;13.90;99.90
38398;DHT22;24179;52.094;4.408;2023-03-14T11:54:50;14.20;99.90
38398;DHT22;24179;52.094;4.408;2023-03-14T11:57:53;14.10;99.90
38398;DHT22;24179;52.094;4.408;2023-03-14T12:00:56;13.80;98.30
38398;DHT22;24179;52.094;4.408;2023-03-14T12:03:59;13.60;99.90
38398;DHT22;24179;52.094;4.408;2023-03-14T12:07:03;13.50;98.10
38398;DHT22;24179;52.094;4.408;2023-03-14T12:10:07;13.00;99.00
38398;DHT22;24179;52.094;4.408;2023-03-14T12:13:10;11.70;97.90
38398;DHT22;24179;52.094;4.408;2023-03-14T12:22:26;11.40;99.90
38398;DHT22;24179;52.094;4.408;2023-03-14T12:25:28;11.50;99.80
38398;DHT22;24179;52.094;4.408;2023-03-14T12:28:30;10.90;98.90
38398;DHT22;24179;52.094;4.408;2023-03-14T12:34:38;10.60;99.90
38398;DHT22;24179;52.094;4.408;2023-03-14T12:37:42;10.90;99.90
38398;DHT22;24179;52.094;4.408;2023-03-14T12:41:05;11.10;99.90
38398;DHT22;24179;52.094;4.408;2023-03-14T12:44:43;11.50;99.60
38398;DHT22;24179;52.094;4.408;2023-03-14T12:50:42;11.90;97.60
38398;DHT22;24179;52.094;4.408;2023-03-14T13:00:22;12.40;97.10
38398;DHT22;24179;52.094;4.408;2023-03-14T13:03:24;12.40;95.70
38398;DHT22;24179;52.094;4.408;2023-03-14T13:16:09;10.90;97.80
38398;DHT22;24179;52.094;4.408;2023-03-14T13:19:19;10.10;97.20
38398;DHT22;24179;52.094;4.408;2023-03-14T13:22:30;10.10;97.60
38398;DHT22;24179;52.094;4.408;2023-03-14T13:25:32;10.60;98.20
38398;DHT22;24179;52.094;4.408;2023-03-14T13:28:33;10.70;97.40
38398;DHT22;24179;52.094;4.408;2023-03-14T13:31:35;10.70;97.40
38398;DHT22;24179;52.094;4.408;2023-03-14T13:34:35;10.40;98.20
38398;DHT22;24179;52.094;4.408;2023-03-14T13:37:38;10.00;98.50
38398;DHT22;24179;52.094;4.408;2023-03-14T13:40:39;9.40;97.10
38398;DHT22;24179;52.094;4.408;2023-03-14T13:43:43;9.40;99.30
38398;DHT22;24179;52.094;4.408;2023-03-14T13:46:44;9.30;98.70
38398;DHT22;24179;52.094;4.408;2023-03-14T13:49:45;9.30;99.50
38398;DHT22;24179;52.094;4.408;2023-03-14T13:52:46;9.30;99.60
38398;DHT22;24179;52.094;4.408;2023-03-14T13:55:47;9.10;99.40
38398;DHT22;24179;52.094;4.408;2023-03-14T13:58:47;8.90;99.50
38398;DHT22;24179;52.094;4.408;2023-03-14T14:01:48;8.70;98.60
38398;DHT22;24179;52.094;4.408;2023-03-14T14:04:49;8.70;98.80
38398;DHT22;24179;52.094;4.408;2023-03-14T14:07:50;8.70;99.00
38398;DHT22;24179;52.094;4.408;2023-03-14T14:10:53;8.70;99.90
38398;DHT22;24179;52.094;4.408;2023-03-14T14:13:55;8.70;99.20
38398;DHT22;24179;52.094;4.408;2023-03-14T14:16:56;8.60;99.00
38398;DHT22;24179;52.094;4.408;2023-03-14T14:19:59;8.40;98.80
38398;DHT22;24179;52.094;4.408;2023-03-14T14:23:01;8.40;99.90
38398;DHT22;24179;52.094;4.408;2023-03-14T14:26:02;8.40;99.90
38398;DHT22;24179;52.094;4.408;2023-03-14T14:29:05;8.60;99.30
38398;DHT22;24179;52.094;4.408;2023-03-14T14:35:25;8.80;98.80
38398;DHT22;24179;52.094;4.408;2023-03-14T14:38:26;8.70;97.50
38398;DHT22;24179;52.094;4.408;2023-03-14T14:41:27;8.60;97.40
38398;DHT22;24179;52.094;4.408;2023-03-14T14:44:29;9.00;98.80
38398;DHT22;24179;52.094;4.408;2023-03-14T14:47:31;9.20;98.50
38398;DHT22;24179;52.094;4.408;2023-03-14T14:50:33;9.40;98.50
38398;DHT22;24179;52.094;4.408;2023-03-14T14:56:38;9.80;98.20
38398;DHT22;24179;52.094;4.408;2023-03-14T14:59:41;9.50;98.70
38398;DHT22;24179;52.094;4.408;2023-03-14T15:02:45;9.30;97.90
38398;DHT22;24179;52.094;4.408;2023-03-14T15:05:47;9.20;98.90
38398;DHT22;24179;52.094;4.408;2023-03-14T15:08:47;9.50;97.10
38398;DHT22;24179;52.094;4.408;2023-03-14T15:11:48;9.60;97.50
38398;DHT22;24179;52.094;4.408;2023-03-14T15:14:49;10.20;97.40
38398;DHT22;24179;52.094;4.408;2023-03-14T15:17:49;10.50;96.40
38398;DHT22;24179;52.094;4.408;2023-03-14T15:20:50;10.50;96.30
38398;DHT22;24179;52.094;4.408;2023-03-14T15:23:51;10.10;97.60
38398;DHT22;24179;52.094;4.408;2023-03-14T15:26:51;9.40;97.70
38398;DHT22;24179;52.094;4.408;2023-03-14T15:29:52;8.80;97.00
38398;DHT22;24179;52.094;4.408;2023-03-14T15:32:52;8.50;97.50
38398;DHT22;24179;52.094;4.408;2023-03-14T15:35:53;8.50;98.30
38398;DHT22;24179;52.094;4.408;2023-03-14T15:38:53;8.50;99.10
38398;DHT22;24179;52.094;4.408;2023-03-14T15:41:54;8.60;99.30
38398;DHT22;24179;52.094;4.408;2023-03-14T15:44:54;8.50;99.30
38398;DHT22;24179;52.094;4.408;2023-03-14T15:47:55;8.30;99.40
38398;DHT22;24179;52.094;4.408;2023-03-14T15:50:55;8.10;99.80
38398;DHT22;24179;52.094;4.408;2023-03-14T15:53:56;7.80;99.90
38398;DHT22;24179;52.094;4.408;2023-03-14T15:56:57;7.70;99.90
38398;DHT22;24179;52.094;4.408;2023-03-14T15:59:57;7.70;99.90
38398;DHT22;24179;52.094;4.408;2023-03-14T16:02:58;7.70;99.90
38398;DHT22;24179;52.094;4.408;2023-03-14T16:05:58;7.70;99.90
38398;DHT22;24179;52.094;4.408;2023-03-14T16:08:59;7.60;99.90
38398;DHT22;24179;52.094;4.408;2023-03-14T16:11:59;7.60;99.90
38398;DHT22;24179;52.094;4.408;2023-03-14T16:15:00;7.70;99.90
38398;DHT22;24179;52.094;4.408;2023-03-14T16:18:00;7.80;99.90
38398;DHT22;24179;52.094;4.408;2023-03-14T16:21:02;7.80;99.90
38398;DHT22;24179;52.094;4.408;2023-03-14T16:24:05;7.80;99.90
38398;DHT22;24179;52.094;4.408;2023-03-14T16:27:06;7.80;99.90
38398;DHT22;24179;52.094;4.408;2023-03-14T16:30:07;7.70;99.90
38398;DHT22;24179;52.094;4.408;2023-03-14T16:33:08;7.60;99.90
38398;DHT22;24179;52.094;4.408;2023-03-14T16:36:10;7.60;99.90
38398;DHT22;24179;52.094;4.408;2023-03-14T16:39:11;7.70;99.90
38398;DHT22;24179;52.094;4.408;2023-03-14T16:42:11;7.70;99.90
38398;DHT22;24179;52.094;4.408;2023-03-14T16:45:12;7.60;99.90
38398;DHT22;24179;52.094;4.408;2023-03-14T16:48:12;7.40;99.90
38398;DHT22;24179;52.094;4.408;2023-03-14T16:51:13;7.20;99.90
38398;DHT22;24179;52.094;4.408;2023-03-14T16:54:15;7.00;99.90
38398;DHT22;24179;52.094;4.408;2023-03-14T16:57:15;6.90;99.90
38398;DHT22;24179;52.094;4.408;2023-03-14T17:00:16;6.80;99.90
38398;DHT22;24179;52.094;4.408;2023-03-14T17:03:17;6.70;99.30
38398;DHT22;24179;52.094;4.408;2023-03-14T17:06:18;6.60;97.80
38398;DHT22;24179;52.094;4.408;2023-03-14T17:09:19;6.50;98.10
38398;DHT22;24179;52.094;4.408;2023-03-14T17:12:19;6.40;99.70
38398;DHT22;24179;52.094;4.408;2023-03-14T17:15:20;6.30;99.90
38398;DHT22;24179;52.094;4.408;2023-03-14T17:18:21;6.20;99.90
38398;DHT22;24179;52.094;4.408;2023-03-14T17:21:22;6.10;99.90
38398;DHT22;24179;52.094;4.408;2023-03-14T17:24:23;6.00;99.90
38398;DHT22;24179;52.094;4.408;2023-03-14T17:27:23;6.00;99.90
38398;DHT22;24179;52.094;4.408;2023-03-14T17:30:24;5.80;99.90
38398;DHT22;24179;52.094;4.408;2023-03-14T17:33:24;5.70;99.90
38398;DHT22;24179;52.094;4.408;2023-03-14T17:36:25;5.60;99.90
38398;DHT22;24179;52.094;4.408;2023-03-14T17:39:29;5.60;99.90
38398;DHT22;24179;52.094;4.408;2023-03-14T17:42:30;5.50;99.90
38398;DHT22;24179;52.094;4.408;2023-03-14T17:45:30;5.50;99.90
38398;DHT22;24179;52.094;4.408;2023-03-14T17:48:31;5.30;99.90
38398;DHT22;24179;52.094;4.408;2023-03-14T17:51:31;5.20;99.90
38398;DHT22;24179;52.094;4.408;2023-03-14T17:54:32;5.20;99.90
38398;DHT22;24179;52.094;4.408;2023-03-14T17:57:32;5.20;99.90
38398;DHT22;24179;52.094;4.408;2023-03-14T18:00:33;5.10;99.90
38398;DHT22;24179;52.094;4.408;2023-03-14T18:03:36;5.10;99.90
38398;DHT22;24179;52.094;4.408;2023-03-14T18:06:37;5.00;99.90
38398;DHT22;24179;52.094;4.408;2023-03-14T18:09:38;5.00;99.90
38398;DHT22;24179;52.094;4.408;2023-03-14T18:12:38;5.00;99.90
38398;DHT22;24179;52.094;4.408;2023-03-14T18:15:39;5.00;99.90
38398;DHT22;24179;52.094;4.408;2023-03-14T18:18:40;5.00;99.90
38398;DHT22;24179;52.094;4.408;2023-03-14T18:21:40;4.90;99.90
38398;DHT22;24179;52.094;4.408;2023-03-14T18:24:41;5.00;99.90
38398;DHT22;24179;52.094;4.408;2023-03-14T18:27:42;5.00;99.90
38398;DHT22;24179;52.094;4.408;2023-03-14T18:30:43;5.00;99.90
38398;DHT22;24179;52.094;4.408;2023-03-14T18:33:46;5.00;99.90
38398;DHT22;24179;52.094;4.408;2023-03-14T18:36:47;5.10;99.90
38398;DHT22;24179;52.094;4.408;2023-03-14T18:39:47;5.20;99.90
38398;DHT22;24179;52.094;4.408;2023-03-14T18:42:48;5.30;99.90
38398;DHT22;24179;52.094;4.408;2023-03-14T18:45:48;5.40;99.90
38398;DHT22;24179;52.094;4.408;2023-03-14T18:48:52;5.50;99.90
38398;DHT22;24179;52.094;4.408;2023-03-14T18:51:56;5.60;99.90
38398;DHT22;24179;52.094;4.408;2023-03-14T18:54:56;5.70;99.90
38398;DHT22;24179;52.094;4.408;2023-03-14T18:57:57;5.80;99.90
38398;DHT22;24179;52.094;4.408;2023-03-14T19:00:58;5.90;99.90
38398;DHT22;24179;52.094;4.408;2023-03-14T19:03:59;5.90;99.90
38398;DHT22;24179;52.094;4.408;2023-03-14T19:07:00;5.90;99.90
38398;DHT22;24179;52.094;4.408;2023-03-14T19:10:01;6.00;99.90
38398;DHT22;24179;52.094;4.408;2023-03-14T19:13:01;6.00;99.90
38398;DHT22;24179;52.094;4.408;2023-03-14T19:16:02;6.00;99.90
38398;DHT22;24179;52.094;4.408;2023-03-14T19:19:05;6.00;99.90
38398;DHT22;24179;52.094;4.408;2023-03-14T19:22:06;6.10;99.90
38398;DHT22;24179;52.094;4.408;2023-03-14T19:25:07;6.10;99.90
38398;DHT22;24179;52.094;4.408;2023-03-14T19:28:08;6.20;99.90
38398;DHT22;24179;52.094;4.408;2023-03-14T19:31:10;5.90;99.90
38398;DHT22;24179;52.094;4.408;2023-03-14T19:34:10;5.50;99.90
38398;DHT22;24179;52.094;4.408;2023-03-14T19:37:10;5.10;99.90
38398;DHT22;24179;52.094;4.408;2023-03-14T19:40:11;4.90;99.90
38398;DHT22;24179;52.094;4.408;2023-03-14T19:43:12;4.70;99.90
38398;DHT22;24179;52.094;4.408;2023-03-14T19:46:12;4.40;99.90
38398;DHT22;24179;52.094;4.408;2023-03-14T19:49:13;4.10;99.90
38398;DHT22;24179;52.094;4.408;2023-03-14T19:52:13;3.80;99.90
38398;DHT22;24179;52.094;4.408;2023-03-14T19:55:14;3.60;99.90
38398;DHT22;24179;52.094;4.408;2023-03-14T19:58:14;3.50;99.90
38398;DHT22;24179;52.094;4.408;2023-03-14T20:01:15;3.40;99.90
38398;DHT22;24179;52.094;4.408;2023-03-14T20:04:15;3.40;99.90
38398;DHT22;24179;52.094;4.408;2023-03-14T20:07:16;3.40;99.90
38398;DHT22;24179;52.094;4.408;2023-03-14T20:10:17;3.50;99.90
38398;DHT22;24179;52.094;4.408;2023-03-14T20:13:18;3.70;99.90
38398;DHT22;24179;52.094;4.408;2023-03-14T20:16:18;3.90;99.90
38398;DHT22;24179;52.094;4.408;2023-03-14T20:19:19;4.00;99.90
38398;DHT22;24179;52.094;4.408;2023-03-14T20:22:21;4.10;99.90
38398;DHT22;24179;52.094;4.408;2023-03-14T20:25:21;4.10;99.90